createdAt,value
2023-03-04T00:02:14.755Z,101143.66
2023-03-04T00:04:42.506Z,101138.75
2023-03-04T00:07:10.256Z,101149.16
2023-03-04T00:09:37.980Z,101143.41
2023-03-04T00:12:07.969Z,101129.50
2023-03-04T00:14:35.831Z,101143.38
2023-03-04T00:17:05.483Z,101138.13
2023-03-04T00:19:33.303Z,101131.66
2023-03-04T00:22:01.025Z,101129.66
2023-03-04T00:24:28.819Z,101128.84
2023-03-04T00:26:56.594Z,101129.81
2023-03-04T00:29:24.309Z,101136.84
2023-03-04T00:31:52.035Z,101107.16
2023-03-04T00:34:21.161Z,101128.69
2023-03-04T00:36:48.948Z,101131.59
2023-03-04T00:39:16.833Z,101137.47
2023-03-04T00:41:44.665Z,101126.69
2023-03-04T00:44:12.417Z,101127.72
2023-03-04T00:46:40.207Z,101122.72
2023-03-04T00:49:07.920Z,101114.56
2023-03-04T00:51:37.308Z,101102.91
2023-03-04T00:54:05.138Z,101115.25
2023-03-04T00:56:32.882Z,101112.06
2023-03-04T00:59:00.604Z,101110.31
2023-03-04T01:01:28.394Z,101096.34
2023-03-04T01:03:56.172Z,101109.28
2023-03-04T01:06:23.900Z,101102.44
2023-03-04T01:08:53.002Z,101102.00
2023-03-04T01:11:20.783Z,101096.09
2023-03-04T01:13:48.589Z,101103.25
2023-03-04T01:16:16.715Z,101110.31
2023-03-04T01:18:44.821Z,101104.09
2023-03-04T01:21:12.568Z,101090.53
2023-03-04T01:23:40.307Z,101084.44
2023-03-04T01:26:09.422Z,101097.25
2023-03-04T01:28:37.218Z,101102.34
2023-03-04T01:31:05.601Z,101098.69
2023-03-04T01:33:33.390Z,101100.75
2023-03-04T01:36:01.166Z,101107.34
2023-03-04T01:38:28.983Z,101108.09
2023-03-04T01:40:56.723Z,101090.09
2023-03-04T01:43:27.885Z,101097.38
2023-03-04T01:45:57.180Z,101102.28
2023-03-04T01:48:28.714Z,101100.34
2023-03-04T01:50:56.609Z,101092.00
2023-03-04T01:53:27.764Z,101094.59
2023-03-04T01:55:57.865Z,101094.72
2023-03-04T01:58:29.540Z,101077.25
2023-03-04T02:00:57.927Z,101087.47
2023-03-04T02:03:26.174Z,101077.31
2023-03-04T02:05:55.190Z,101080.16
2023-03-04T02:08:25.547Z,101063.38
2023-03-04T02:10:53.841Z,101072.88
2023-03-04T02:13:21.736Z,101060.38
2023-03-04T02:15:50.927Z,101076.72
2023-03-04T02:18:20.682Z,101077.19
2023-03-04T02:21:00.091Z,101070.09
2023-03-04T02:23:34.402Z,101066.88
2023-03-04T02:26:25.587Z,101068.81
2023-03-04T02:28:54.930Z,101054.38
2023-03-04T02:31:26.536Z,101060.25
2023-03-04T02:33:56.473Z,101054.72
2023-03-04T02:36:24.633Z,101052.25
2023-03-04T02:38:53.434Z,101066.44
2023-03-04T02:41:25.584Z,101059.34
2023-03-04T02:43:56.848Z,101049.22
2023-03-04T02:46:25.044Z,101057.56
2023-03-04T02:48:53.691Z,101056.47
2023-03-04T02:51:21.401Z,101068.47
2023-03-04T02:53:49.165Z,101050.97
2023-03-04T02:56:16.911Z,101067.28
2023-03-04T02:58:46.011Z,101065.59
2023-03-04T03:01:14.010Z,101062.63
2023-03-04T03:03:41.697Z,101062.34
2023-03-04T03:06:09.898Z,101057.31
2023-03-04T03:08:37.616Z,101049.66
2023-03-04T03:11:05.634Z,101065.31
2023-03-04T03:13:33.398Z,101066.31
2023-03-04T03:16:02.558Z,101054.22
2023-03-04T03:18:30.304Z,101044.09
2023-03-04T03:20:58.032Z,101052.94
2023-03-04T03:23:25.749Z,101049.63
2023-03-04T03:25:53.475Z,101043.53
2023-03-04T03:28:21.210Z,101059.09
2023-03-04T03:30:48.925Z,101032.78
2023-03-04T03:33:18.011Z,101028.13
2023-03-04T03:35:45.818Z,101027.09
2023-03-04T03:38:13.611Z,101030.47
2023-03-04T03:40:41.317Z,101027.66
2023-03-04T03:43:09.005Z,101036.84
2023-03-04T03:45:36.857Z,101024.94
2023-03-04T03:48:05.064Z,101016.38
2023-03-04T03:50:34.151Z,101020.59
2023-03-04T03:53:02.002Z,101024.03
2023-03-04T03:55:29.751Z,101024.59
2023-03-04T03:57:57.521Z,101024.31
2023-03-04T04:00:25.504Z,101024.75
2023-03-04T04:02:54.475Z,101008.06
2023-03-04T04:05:22.332Z,101023.69
2023-03-04T04:07:53.773Z,101015.97
2023-03-04T04:10:22.193Z,101017.53
2023-03-04T04:12:49.948Z,101010.53
2023-03-04T04:15:17.759Z,101025.19
2023-03-04T04:17:45.478Z,101017.16
2023-03-04T04:20:13.407Z,101018.63
2023-03-04T04:22:41.222Z,101038.81
2023-03-04T04:25:11.456Z,101026.06
2023-03-04T04:27:39.213Z,101042.84
2023-03-04T04:30:08.191Z,101025.03
2023-03-04T04:32:36.051Z,101035.06
2023-03-04T04:35:03.892Z,101046.38
2023-03-04T04:37:32.560Z,101041.97
2023-03-04T04:40:00.314Z,101047.03
2023-03-04T04:42:29.566Z,101067.31
2023-03-04T04:44:57.827Z,101098.84
2023-03-04T04:47:25.632Z,101084.50
2023-03-04T04:49:53.427Z,101099.50
2023-03-04T04:52:21.174Z,101093.34
2023-03-04T04:54:48.893Z,101119.09
2023-03-04T04:57:16.660Z,101143.31
2023-03-04T04:59:45.738Z,101162.56
2023-03-04T05:02:13.615Z,101161.94
2023-03-04T05:04:41.331Z,101174.03
2023-03-04T05:07:09.171Z,101166.78
2023-03-04T05:09:36.941Z,101159.94
2023-03-04T05:12:05.124Z,101170.34
2023-03-04T05:14:32.825Z,101171.47
2023-03-04T05:17:01.919Z,101166.16
2023-03-04T05:19:29.666Z,101162.13
2023-03-04T05:21:57.507Z,101160.78
2023-03-04T05:24:25.554Z,101164.25
2023-03-04T05:26:53.323Z,101152.13
2023-03-04T05:29:21.392Z,101160.22
2023-03-04T05:31:49.120Z,101155.47
2023-03-04T05:34:18.351Z,101176.44
2023-03-04T05:36:46.116Z,101158.38
2023-03-04T05:39:13.829Z,101171.88
2023-03-04T05:41:41.528Z,101160.47
2023-03-04T05:44:09.633Z,101170.41
2023-03-04T05:46:37.435Z,101169.56
2023-03-04T05:49:05.240Z,101156.16
2023-03-04T05:51:34.359Z,101135.22
2023-03-04T05:54:02.066Z,101148.63
2023-03-04T05:56:30.517Z,101142.84
2023-03-04T05:58:59.140Z,101172.69
2023-03-04T06:01:27.444Z,101159.25
2023-03-04T06:03:55.367Z,101155.72
2023-03-04T06:06:23.177Z,101173.38
2023-03-04T06:08:52.331Z,101171.72
2023-03-04T06:11:20.086Z,101177.50
2023-03-04T06:13:47.855Z,101174.22
2023-03-04T06:16:15.663Z,101169.41
2023-03-04T06:18:43.416Z,101179.38
2023-03-04T06:21:11.156Z,101181.88
2023-03-04T06:23:39.020Z,101177.59
2023-03-04T06:26:10.100Z,101187.88
2023-03-04T06:28:37.801Z,101189.75
2023-03-04T06:31:05.852Z,101177.50
2023-03-04T06:33:33.884Z,101184.31
2023-03-04T06:36:01.624Z,101174.69
2023-03-04T06:38:29.418Z,101183.66
2023-03-04T06:40:57.635Z,101164.34
2023-03-04T06:43:26.870Z,101189.59
2023-03-04T06:45:54.583Z,101179.28
2023-03-04T06:48:22.282Z,101174.56
2023-03-04T06:50:49.989Z,101188.13
2023-03-04T06:53:17.701Z,101198.38
2023-03-04T06:55:45.440Z,101198.66
2023-03-04T06:58:13.161Z,101208.16
2023-03-04T07:00:42.358Z,101190.22
2023-03-04T07:03:10.490Z,101226.25
2023-03-04T07:05:38.216Z,101211.47
2023-03-04T07:08:07.064Z,101212.13
2023-03-04T07:10:34.882Z,101227.88
2023-03-04T07:13:02.713Z,101225.72
2023-03-04T07:15:30.708Z,101233.50
2023-03-04T07:17:59.848Z,101236.81
2023-03-04T07:20:29.131Z,101224.09
2023-03-04T07:22:58.426Z,101228.63
2023-03-04T07:25:26.172Z,101223.63
2023-03-04T07:27:53.886Z,101247.59
2023-03-04T07:30:21.803Z,101256.81
2023-03-04T07:32:49.619Z,101245.97
2023-03-04T07:35:19.200Z,101249.56
2023-03-04T07:37:46.958Z,101263.56
2023-03-04T07:40:14.697Z,101278.69
2023-03-04T07:42:43.020Z,101287.38
2023-03-04T07:45:11.926Z,101282.03
2023-03-04T07:47:41.436Z,101285.91
2023-03-04T07:50:10.644Z,101308.66
2023-03-04T07:52:52.147Z,101289.06
2023-03-04T07:55:20.701Z,101290.13
2023-03-04T07:57:49.102Z,101299.72
2023-03-04T08:00:18.253Z,101332.19
2023-03-04T08:02:46.072Z,101327.94
2023-03-04T08:05:14.084Z,101308.28
2023-03-04T08:07:43.263Z,101325.13
2023-03-04T08:10:12.605Z,101334.94
2023-03-04T08:12:40.349Z,101318.44
2023-03-04T08:15:09.415Z,101321.28
2023-03-04T08:17:37.171Z,101324.44
2023-03-04T08:20:05.361Z,101334.00
2023-03-04T08:22:33.129Z,101349.19
2023-03-04T08:25:02.251Z,101344.72
2023-03-04T08:27:30.134Z,101319.22
2023-03-04T08:29:57.887Z,101307.06
2023-03-04T08:32:25.846Z,101320.75
2023-03-04T08:34:56.255Z,101326.69
2023-03-04T08:37:24.035Z,101344.25
2023-03-04T08:39:51.773Z,101354.44
2023-03-04T08:42:20.874Z,101363.22
2023-03-04T08:44:48.625Z,101329.38
2023-03-04T08:47:16.347Z,101338.16
2023-03-04T08:49:44.077Z,101319.69
2023-03-04T08:52:11.836Z,101342.81
2023-03-04T08:54:39.551Z,101332.13
2023-03-04T08:57:07.880Z,101342.91
2023-03-04T08:59:38.390Z,101330.94
2023-03-04T09:02:06.512Z,101338.50
2023-03-04T09:04:34.351Z,101332.91
2023-03-04T09:07:02.089Z,101330.38
2023-03-04T09:09:29.892Z,101343.31
2023-03-04T09:11:58.697Z,101337.34
2023-03-04T09:14:26.460Z,101347.47
2023-03-04T09:16:55.549Z,101333.09
2023-03-04T09:19:24.242Z,101355.97
2023-03-04T09:21:51.988Z,101382.47
2023-03-04T09:24:19.752Z,101369.13
2023-03-04T09:26:51.574Z,101379.53
2023-03-04T09:29:19.341Z,101377.56
2023-03-04T09:31:47.158Z,101383.81
2023-03-04T09:34:20.939Z,101393.91
2023-03-04T09:36:48.644Z,101393.53
2023-03-04T09:39:16.391Z,101372.19
2023-03-04T09:41:47.024Z,101421.75
2023-03-04T09:44:22.746Z,101436.38
2023-03-04T09:46:52.798Z,101449.53
2023-03-04T09:49:23.207Z,101450.66
2023-03-04T09:52:00.130Z,101433.91
2023-03-04T09:54:58.161Z,101450.09
2023-03-04T09:57:30.980Z,101433.06
2023-03-04T10:00:12.504Z,101436.31
2023-03-04T10:02:58.986Z,101430.31
2023-03-04T10:05:31.444Z,101441.59
2023-03-04T10:08:01.785Z,101447.50
2023-03-04T10:10:33.774Z,101463.31
2023-03-04T10:13:04.100Z,101448.53
2023-03-04T10:15:37.619Z,101472.50
2023-03-04T10:18:17.471Z,101480.31
2023-03-04T10:20:55.008Z,101475.47
2023-03-04T10:23:26.544Z,101476.00
2023-03-04T10:25:55.404Z,101487.16
2023-03-04T10:28:27.004Z,101510.13
2023-03-04T10:31:00.970Z,101506.66
2023-03-04T10:33:31.614Z,101517.94
2023-03-04T10:36:04.952Z,101514.59
2023-03-04T10:38:35.355Z,101519.88
2023-03-04T10:41:12.946Z,101496.63
2023-03-04T10:43:45.039Z,101510.38
2023-03-04T10:46:18.232Z,101533.84
2023-03-04T10:48:46.557Z,101532.41
2023-03-04T10:51:21.131Z,101536.56
2023-03-04T10:53:52.351Z,101535.84
2023-03-04T10:56:35.568Z,101541.13
2023-03-04T10:59:31.283Z,101542.69
2023-03-04T11:01:59.881Z,101542.69
2023-03-04T11:04:29.627Z,101537.81
2023-03-04T11:06:58.738Z,101536.34
2023-03-04T11:09:28.281Z,101546.53
2023-03-04T11:11:59.878Z,101547.38
2023-03-04T11:14:30.227Z,101514.47
2023-03-04T11:16:59.884Z,101520.69
2023-03-04T11:19:33.994Z,101514.31
2023-03-04T11:22:04.342Z,101493.31
2023-03-04T11:24:35.414Z,101521.31
2023-03-04T11:27:06.864Z,101535.63
2023-03-04T11:29:39.452Z,101542.94
2023-03-04T11:32:12.090Z,101554.09
2023-03-04T11:34:45.111Z,101553.69
2023-03-04T11:37:22.826Z,101562.50
2023-03-04T11:39:53.973Z,101532.41
2023-03-04T11:42:33.429Z,101537.16
2023-03-04T11:45:02.085Z,101534.72
2023-03-04T11:47:57.750Z,101534.56
2023-03-04T11:50:32.727Z,101538.38
2023-03-04T11:53:32.535Z,101541.66
2023-03-04T11:56:23.436Z,101553.38
2023-03-04T11:59:14.707Z,101540.25
2023-03-04T12:01:54.676Z,101562.41
2023-03-04T12:04:44.421Z,101551.97
2023-03-04T12:07:29.216Z,101572.91
2023-03-04T12:10:07.384Z,101572.84
2023-03-04T12:12:49.559Z,101557.81
2023-03-04T12:15:22.214Z,101565.19
2023-03-04T12:18:20.874Z,101552.84
2023-03-04T12:21:02.142Z,101554.00
2023-03-04T12:24:08.292Z,101551.03
2023-03-04T12:26:41.658Z,101547.94
2023-03-04T12:29:18.173Z,101555.97
2023-03-04T12:31:47.479Z,101539.03
2023-03-04T12:34:33.060Z,101542.94
2023-03-04T12:37:21.852Z,101549.84
2023-03-04T12:40:06.929Z,101553.28
2023-03-04T12:42:51.167Z,101545.13
2023-03-04T12:45:23.387Z,101547.41
2023-03-04T12:48:01.382Z,101573.28
2023-03-04T12:50:42.844Z,101580.59
2023-03-04T12:53:22.061Z,101589.53
2023-03-04T12:55:51.996Z,101591.06
2023-03-04T12:58:24.886Z,101599.31
2023-03-04T13:01:02.960Z,101594.81
2023-03-04T13:03:40.131Z,101601.09
2023-03-04T13:06:16.104Z,101602.16
2023-03-04T13:08:58.274Z,101604.59
2023-03-04T13:11:54.822Z,101613.00
2023-03-04T13:14:32.312Z,101609.66
2023-03-04T13:17:02.189Z,101599.94
2023-03-04T13:19:57.119Z,101592.22
2023-03-04T13:22:30.131Z,101586.59
2023-03-04T13:24:58.958Z,101586.66
2023-03-04T13:27:46.466Z,101586.91
2023-03-04T13:30:42.192Z,101597.91
2023-03-04T13:33:46.643Z,101580.28
2023-03-04T13:36:34.045Z,101593.50
2023-03-04T13:39:03.789Z,101593.47
2023-03-04T13:41:48.197Z,101580.19
2023-03-04T13:45:05.222Z,101581.31
2023-03-04T13:47:44.396Z,101587.66
2023-03-04T13:50:30.011Z,101594.66
2023-03-04T13:53:02.916Z,101599.59
2023-03-04T13:55:37.992Z,101598.25
2023-03-04T13:58:20.096Z,101602.72
2023-03-04T14:00:51.652Z,101589.28
2023-03-04T14:03:29.130Z,101598.75
2023-03-04T14:06:18.757Z,101598.88
2023-03-04T14:08:47.493Z,101597.88
2023-03-04T14:11:17.268Z,101604.19
2023-03-04T14:13:45.573Z,101609.78
2023-03-04T14:16:13.370Z,101599.78
2023-03-04T14:18:43.072Z,101597.16
2023-03-04T14:21:15.584Z,101604.22
2023-03-04T14:23:44.536Z,101601.44
2023-03-04T14:26:15.473Z,101597.91
2023-03-04T14:28:45.169Z,101595.72
2023-03-04T14:31:18.330Z,101594.38
2023-03-04T14:33:49.385Z,101588.81
2023-03-04T14:36:20.348Z,101592.94
2023-03-04T14:38:54.373Z,101592.00
2023-03-04T14:41:27.036Z,101582.94
2023-03-04T14:44:00.663Z,101580.72
2023-03-04T14:46:33.192Z,101591.91
2023-03-04T14:49:03.147Z,101610.56
2023-03-04T14:51:41.563Z,101614.22
2023-03-04T14:54:28.298Z,101602.53
2023-03-04T14:56:56.646Z,101597.75
2023-03-04T14:59:32.799Z,101593.28
2023-03-04T15:02:19.366Z,101608.28
2023-03-04T15:04:51.175Z,101612.13
2023-03-04T15:07:22.669Z,101606.84
2023-03-04T15:09:53.470Z,101612.00
2023-03-04T15:12:27.605Z,101602.91
2023-03-04T15:14:56.660Z,101613.94
2023-03-04T15:17:27.050Z,101604.66
2023-03-04T15:20:05.017Z,101609.31
2023-03-04T15:22:33.360Z,101605.56
2023-03-04T15:25:01.233Z,101598.28
2023-03-04T15:27:30.484Z,101603.47
2023-03-04T15:30:02.006Z,101600.31
2023-03-04T15:32:30.840Z,101603.34
2023-03-04T15:34:58.633Z,101607.72
2023-03-04T15:37:30.429Z,101611.16
2023-03-04T15:39:59.242Z,101609.97
2023-03-04T15:42:28.175Z,101610.06
2023-03-04T15:44:55.902Z,101613.44
2023-03-04T15:47:23.607Z,101621.88
2023-03-04T15:49:52.602Z,101619.44
2023-03-04T15:52:22.294Z,101613.44
2023-03-04T15:54:51.459Z,101613.34
2023-03-04T15:57:22.461Z,101608.00
2023-03-04T15:59:50.332Z,101622.47
2023-03-04T16:02:22.377Z,101622.34
2023-03-04T16:04:50.110Z,101626.03
2023-03-04T16:07:19.778Z,101634.22
2023-03-04T16:09:51.110Z,101637.78
2023-03-04T16:12:20.263Z,101637.84
2023-03-04T16:14:49.275Z,101636.75
2023-03-04T16:17:16.987Z,101637.84
2023-03-04T16:19:44.711Z,101641.66
2023-03-04T16:22:14.577Z,101647.41
2023-03-04T16:24:43.296Z,101646.88
2023-03-04T16:27:12.852Z,101646.41
2023-03-04T16:29:42.154Z,101642.09
2023-03-04T16:32:10.539Z,101643.13
2023-03-04T16:34:38.300Z,101638.34
2023-03-04T16:37:15.958Z,101647.00
2023-03-04T16:39:46.186Z,101646.69
2023-03-04T16:42:18.894Z,101640.94
2023-03-04T16:44:48.026Z,101633.28
2023-03-04T16:47:15.734Z,101642.81
2023-03-04T16:49:43.584Z,101645.09
2023-03-04T16:52:21.583Z,101645.41
2023-03-04T16:54:49.830Z,101644.81
2023-03-04T16:57:17.705Z,101637.94
2023-03-04T16:59:45.997Z,101643.66
2023-03-04T17:02:20.158Z,101640.41
2023-03-04T17:04:49.557Z,101646.16
2023-03-04T17:07:17.958Z,101645.75
2023-03-04T17:09:46.215Z,101641.34
2023-03-04T17:12:13.985Z,101642.69
2023-03-04T17:14:41.788Z,101636.41
2023-03-04T17:17:09.538Z,101642.94
2023-03-04T17:19:38.691Z,101644.44
2023-03-04T17:22:06.423Z,101640.81
2023-03-04T17:24:34.173Z,101638.44
2023-03-04T17:27:01.895Z,101632.25
2023-03-04T17:29:29.633Z,101626.03
2023-03-04T17:31:57.346Z,101612.88
2023-03-04T17:34:25.815Z,101609.66
2023-03-04T17:36:54.908Z,101612.25
2023-03-04T17:39:22.669Z,101605.19
2023-03-04T17:41:51.294Z,101609.50
2023-03-04T17:44:19.789Z,101608.94
2023-03-04T17:46:48.835Z,101604.16
2023-03-04T17:49:17.357Z,101598.50
2023-03-04T17:51:45.446Z,101609.41
2023-03-04T17:54:14.533Z,101606.03
2023-03-04T17:56:44.399Z,101594.47
2023-03-04T17:59:15.493Z,101594.28
2023-03-04T18:01:45.001Z,101592.59
2023-03-04T18:04:13.629Z,101595.03
2023-03-04T18:06:41.939Z,101592.88
2023-03-04T18:09:09.855Z,101584.44
2023-03-04T18:11:45.425Z,101587.13
2023-03-04T18:14:14.592Z,101578.91
2023-03-04T18:16:42.829Z,101579.63
2023-03-04T18:19:13.401Z,101575.94
2023-03-04T18:21:41.164Z,101575.38
2023-03-04T18:24:11.923Z,101582.53
2023-03-04T18:26:42.993Z,101583.31
2023-03-04T18:29:11.142Z,101572.00
2023-03-04T18:31:38.899Z,101571.59
2023-03-04T18:34:06.915Z,101572.44
2023-03-04T18:36:35.038Z,101568.59
2023-03-04T18:39:05.245Z,101571.38
2023-03-04T18:41:33.025Z,101564.25
2023-03-04T18:44:02.110Z,101568.88
2023-03-04T18:46:32.995Z,101558.31
2023-03-04T18:49:04.140Z,101552.47
2023-03-04T18:51:32.064Z,101557.41
2023-03-04T18:53:59.832Z,101560.09
2023-03-04T18:56:34.530Z,101562.97
2023-03-04T18:59:03.641Z,101556.31
2023-03-04T19:01:31.566Z,101561.19
2023-03-04T19:04:04.595Z,101560.47
2023-03-04T19:06:32.861Z,101556.94
2023-03-04T19:09:00.709Z,101556.09
2023-03-04T19:11:29.909Z,101558.50
2023-03-04T19:13:57.606Z,101556.94
2023-03-04T19:16:26.808Z,101556.22
2023-03-04T19:18:54.582Z,101548.84
2023-03-04T19:21:22.338Z,101547.06
2023-03-04T19:23:50.075Z,101545.19
2023-03-04T19:26:18.066Z,101545.69
2023-03-04T19:28:45.803Z,101538.91
2023-03-04T19:31:13.956Z,101541.22
2023-03-04T19:33:43.029Z,101538.72
2023-03-04T19:36:11.251Z,101530.19
2023-03-04T19:38:39.097Z,101534.50
2023-03-04T19:41:11.320Z,101530.28
2023-03-04T19:43:39.559Z,101528.94
2023-03-04T19:46:08.662Z,101525.19
2023-03-04T19:48:37.979Z,101522.16
2023-03-04T19:51:14.759Z,101523.97
2023-03-04T19:53:42.800Z,101519.28
2023-03-04T19:56:10.592Z,101518.03
2023-03-04T19:58:38.415Z,101514.09
2023-03-04T20:01:06.628Z,101521.03
2023-03-04T20:03:34.420Z,101509.19
2023-03-04T20:06:08.495Z,101511.78
2023-03-04T20:08:38.431Z,101505.03
2023-03-04T20:11:08.539Z,101516.72
2023-03-04T20:13:36.244Z,101515.66
2023-03-04T20:16:08.383Z,101505.50
2023-03-04T20:18:36.111Z,101509.63
2023-03-04T20:21:04.041Z,101510.44
2023-03-04T20:23:33.612Z,101516.81
2023-03-04T20:26:01.559Z,101515.28
2023-03-04T20:28:29.629Z,101519.31
2023-03-04T20:31:11.396Z,101527.13
2023-03-04T20:33:39.237Z,101518.72
2023-03-04T20:36:07.115Z,101531.00
2023-03-04T20:38:36.179Z,101524.66
2023-03-04T20:41:05.475Z,101519.47
2023-03-04T20:43:33.333Z,101518.78
2023-03-04T20:46:41.845Z,101512.59
2023-03-04T20:49:12.112Z,101516.44
2023-03-04T20:51:40.195Z,101517.31
2023-03-04T20:54:09.770Z,101513.75
2023-03-04T20:56:38.462Z,101512.78
2023-03-04T20:59:08.798Z,101515.31
2023-03-04T21:01:37.051Z,101505.31
2023-03-04T21:04:05.538Z,101503.53
2023-03-04T21:06:33.759Z,101498.25
2023-03-04T21:09:03.717Z,101496.78
2023-03-04T21:11:39.887Z,101500.38
2023-03-04T21:14:08.841Z,101490.69
2023-03-04T21:16:36.631Z,101491.31
2023-03-04T21:19:04.728Z,101490.72
2023-03-04T21:21:32.448Z,101482.50
2023-03-04T21:24:00.586Z,101484.09
2023-03-04T21:26:28.370Z,101479.78
2023-03-04T21:28:57.513Z,101470.56
2023-03-04T21:31:27.489Z,101473.94
2023-03-04T21:33:58.631Z,101462.75
2023-03-04T21:36:26.545Z,101455.63
2023-03-04T21:38:54.867Z,101454.22
2023-03-04T21:41:24.534Z,101447.00
2023-03-04T21:43:52.655Z,101446.25
2023-03-04T21:46:23.345Z,101442.41
2023-03-04T21:48:51.144Z,101443.63
2023-03-04T21:51:18.879Z,101437.50
2023-03-04T21:53:46.633Z,101423.16
2023-03-04T21:56:15.035Z,101432.66
2023-03-04T21:58:42.888Z,101420.81
2023-03-04T22:01:11.756Z,101408.44
2023-03-04T22:03:44.036Z,101408.53
2023-03-04T22:06:13.383Z,101408.19
2023-03-04T22:08:41.969Z,101399.34
2023-03-04T22:11:12.082Z,101407.63
2023-03-04T22:13:39.779Z,101396.22
2023-03-04T22:16:08.456Z,101391.50
2023-03-04T22:18:39.832Z,101383.28
2023-03-04T22:21:10.577Z,101376.91
2023-03-04T22:23:38.994Z,101367.75
2023-03-04T22:26:08.592Z,101371.06
2023-03-04T22:28:36.517Z,101361.94
2023-03-04T22:31:04.668Z,101364.97
2023-03-04T22:33:37.144Z,101348.00
2023-03-04T22:36:06.984Z,101364.00
2023-03-04T22:38:37.198Z,101349.88
2023-03-04T22:41:05.609Z,101349.00
2023-03-04T22:43:33.325Z,101334.47
2023-03-04T22:46:01.796Z,101326.66
2023-03-04T22:48:29.551Z,101332.63
2023-03-04T22:50:57.247Z,101331.84
2023-03-04T22:53:26.224Z,101332.59
2023-03-04T22:55:59.478Z,101347.50
2023-03-04T22:58:27.217Z,101350.13
2023-03-04T23:00:54.926Z,101345.25
2023-03-04T23:03:22.694Z,101344.22
2023-03-04T23:05:50.516Z,101351.31
2023-03-04T23:08:18.639Z,101341.78
2023-03-04T23:10:46.345Z,101335.34
2023-03-04T23:13:15.437Z,101336.75
2023-03-04T23:15:43.117Z,101329.72
2023-03-04T23:18:10.855Z,101329.84
2023-03-04T23:20:41.959Z,101326.22
2023-03-04T23:23:09.705Z,101331.28
2023-03-04T23:25:37.801Z,101330.53
2023-03-04T23:28:06.193Z,101328.75
2023-03-04T23:30:35.686Z,101332.97
2023-03-04T23:33:03.642Z,101326.59
2023-03-04T23:35:31.393Z,101338.09
2023-03-04T23:37:59.106Z,101331.72
2023-03-04T23:40:26.960Z,101325.38
2023-03-04T23:42:54.704Z,101330.66
2023-03-04T23:45:22.410Z,101325.50
2023-03-04T23:47:51.553Z,101328.69
2023-03-04T23:50:19.468Z,101334.16
2023-03-04T23:52:47.420Z,101321.81
2023-03-04T23:55:17.389Z,101321.50
2023-03-04T23:57:45.846Z,101321.56
